Time;durP1;ratioP1;P1;durP2;ratioP2;P2;SDS_P1;SDS_P2;PMS_P1;PMS_P2;Temp;Humidity;BMP_temperature;BMP_pressure;BME280_temperature;BME280_humidity;BME280_pressure;Samples;Min_cycle;Max_cycle;Signal;HPM_P1;HPM_P2
2022/03/19 00:00:21;;;;;;;26.45;6.57;;;;;;;;;;4960119;28;94820;-71
2022/03/19 00:02:47;;;;;;;22.88;6.05;;;;;;;;;;4967619;28;95639;-71
2022/03/19 00:05:14;;;;;;;21.90;5.47;;;;;;;;;;4965808;28;93434;-71
2022/03/19 00:07:43;;;;;;;20.15;5.22;;;;;;;;;;4966727;28;94060;-71
2022/03/19 00:10:09;;;;;;;18.70;5.28;;;;;;;;;;4966244;28;94012;-70
2022/03/19 00:12:38;;;;;;;20.65;5.32;;;;;;;;;;4973795;28;94316;-70
2022/03/19 00:15:07;;;;;;;19.13;5.13;;;;;;;;;;4970313;28;96121;-70
2022/03/19 00:17:33;;;;;;;20.48;5.38;;;;;;;;;;4971545;28;92935;-70
2022/03/19 00:19:59;;;;;;;20.05;5.68;;;;;;;;;;4965302;28;92490;-70
2022/03/19 00:22:26;;;;;;;22.35;5.40;;;;;;;;;;4968683;28;95572;-70
2022/03/19 00:24:52;;;;;;;16.83;5.07;;;;;;;;;;4959909;28;95885;-71
2022/03/19 00:27:18;;;;;;;15.57;5.03;;;;;;;;;;4965276;28;92960;-71
2022/03/19 00:29:45;;;;;;;25.00;4.85;;;;;;;;;;4972448;28;93545;-70
2022/03/19 00:32:11;;;;;;;21.20;5.30;;;;;;;;;;4964802;28;93350;-71
2022/03/19 00:34:37;;;;;;;21.10;5.30;;;;;;;;;;4967951;28;94002;-71
2022/03/19 00:37:04;;;;;;;13.23;5.00;;;;;;;;;;4965185;28;93067;-70
2022/03/19 00:39:30;;;;;;;17.63;5.45;;;;;;;;;;4968736;28;92477;-71
2022/03/19 00:41:56;;;;;;;16.67;5.10;;;;;;;;;;4971637;28;93256;-70
2022/03/19 00:44:23;;;;;;;20.17;4.95;;;;;;;;;;4972539;28;93528;-70
2022/03/19 00:46:49;;;;;;;21.50;5.53;;;;;;;;;;4971441;28;92558;-70
2022/03/19 00:49:16;;;;;;;16.98;5.03;;;;;;;;;;4969632;28;94763;-70
2022/03/19 00:51:43;;;;;;;19.80;5.00;;;;;;;;;;4966568;28;93574;-70
2022/03/19 00:54:11;;;;;;;20.02;5.25;;;;;;;;;;4963316;28;92567;-70
2022/03/19 00:56:37;;;;;;;24.83;5.15;;;;;;;;;;4963101;28;93630;-69
2022/03/19 00:59:04;;;;;;;18.55;4.75;;;;;;;;;;4961762;28;94000;-69
2022/03/19 01:01:30;;;;;;;17.25;4.57;;;;;;;;;;4973087;28;93081;-70
2022/03/19 01:03:57;;;;;;;16.10;4.45;;;;;;;;;;4960685;28;93960;-70
2022/03/19 01:06:23;;;;;;;20.63;4.70;;;;;;;;;;4970315;28;92498;-70
2022/03/19 01:08:55;;;;;;;21.17;5.38;;;;;;;;;;4962009;28;93224;-70
2022/03/19 01:11:24;;;;;;;22.38;5.18;;;;;;;;;;4974406;28;93915;-70
2022/03/19 01:13:50;;;;;;;20.65;4.97;;;;;;;;;;4966371;28;94905;-70
2022/03/19 01:16:18;;;;;;;23.58;4.95;;;;;;;;;;4975515;28;94543;-70
2022/03/19 01:18:45;;;;;;;29.00;5.70;;;;;;;;;;4972455;28;93405;-70
2022/03/19 01:21:12;;;;;;;22.15;5.68;;;;;;;;;;4975680;28;93346;-71
2022/03/19 01:23:38;;;;;;;27.88;5.30;;;;;;;;;;4968993;28;93430;-70
2022/03/19 01:26:04;;;;;;;19.08;4.70;;;;;;;;;;4968729;28;92494;-70
2022/03/19 01:28:31;;;;;;;23.27;4.93;;;;;;;;;;4976006;28;93385;-70
2022/03/19 01:30:57;;;;;;;23.15;4.95;;;;;;;;;;4974196;28;93401;-70
2022/03/19 01:33:23;;;;;;;21.50;5.03;;;;;;;;;;4973936;28;92826;-69
2022/03/19 01:35:49;;;;;;;18.38;4.70;;;;;;;;;;4973447;28;93088;-70
2022/03/19 01:38:16;;;;;;;21.13;5.45;;;;;;;;;;4975278;28;95932;-70
2022/03/19 01:40:42;;;;;;;16.13;4.47;;;;;;;;;;4968871;28;94252;-70
2022/03/19 01:43:09;;;;;;;19.23;5.10;;;;;;;;;;4965708;28;93749;-70
2022/03/19 01:45:35;;;;;;;19.10;5.03;;;;;;;;;;4969315;28;92481;-70
2022/03/19 01:48:02;;;;;;;26.17;4.97;;;;;;;;;;4974241;28;93253;-70
2022/03/19 01:50:28;;;;;;;21.30;4.50;;;;;;;;;;4964475;28;93812;-69
2022/03/19 01:52:55;;;;;;;15.73;4.30;;;;;;;;;;4960457;28;93556;-70
2022/03/19 01:55:23;;;;;;;23.95;5.10;;;;;;;;;;4969279;28;93456;-70
2022/03/19 01:57:50;;;;;;;20.70;4.90;;;;;;;;;;4969675;28;93510;-70
2022/03/19 02:00:18;;;;;;;17.45;4.65;;;;;;;;;;4977587;28;92489;-70
2022/03/19 02:02:45;;;;;;;17.55;4.93;;;;;;;;;;4964289;28;96186;-70
2022/03/19 02:05:12;;;;;;;21.20;5.05;;;;;;;;;;4972547;28;92612;-70
2022/03/19 02:07:39;;;;;;;17.73;4.38;;;;;;;;;;4957839;28;93367;-70
2022/03/19 02:10:05;;;;;;;20.25;5.13;;;;;;;;;;4968465;28;93467;-70
2022/03/19 02:12:32;;;;;;;15.40;4.13;;;;;;;;;;4951434;28;92532;-70
2022/03/19 02:14:58;;;;;;;19.27;4.85;;;;;;;;;;4968667;28;94174;-71
2022/03/19 02:17:26;;;;;;;24.77;5.00;;;;;;;;;;4973122;28;93376;-70
2022/03/19 02:19:53;;;;;;;19.80;4.70;;;;;;;;;;4968322;28;91916;-70
2022/03/19 02:22:20;;;;;;;13.93;4.18;;;;;;;;;;4969999;28;92941;-71
2022/03/19 02:27:32;;;;;;;16.98;4.93;;;;;;;;;;4963059;28;94877;-71
2022/03/19 02:29:59;;;;;;;14.85;4.05;;;;;;;;;;4968181;28;93210;-70
2022/03/19 02:32:26;;;;;;;21.67;4.60;;;;;;;;;;4966166;28;92903;-70
2022/03/19 02:34:53;;;;;;;20.80;4.03;;;;;;;;;;4959750;28;93162;-71
2022/03/19 02:37:19;;;;;;;13.10;3.88;;;;;;;;;;4964034;28;93635;-70
2022/03/19 02:39:46;;;;;;;16.33;4.93;;;;;;;;;;4969012;28;92742;-70
2022/03/19 02:42:15;;;;;;;18.13;5.03;;;;;;;;;;4966987;28;93136;-70
2022/03/19 02:44:41;;;;;;;21.70;5.45;;;;;;;;;;4955313;28;91706;-70
2022/03/19 02:47:08;;;;;;;24.63;4.95;;;;;;;;;;4972437;28;93343;-70
2022/03/19 02:49:35;;;;;;;21.88;5.25;;;;;;;;;;4970051;28;93998;-70
2022/03/19 02:52:02;;;;;;;19.77;4.80;;;;;;;;;;4968179;28;94971;-70
2022/03/19 02:54:29;;;;;;;13.20;4.40;;;;;;;;;;4964412;28;95477;-70
2022/03/19 02:56:55;;;;;;;22.15;5.25;;;;;;;;;;4964338;28;93678;-71
2022/03/19 02:59:29;;;;;;;20.15;5.15;;;;;;;;;;4967234;28;92539;-71
2022/03/19 03:02:00;;;;;;;27.65;5.10;;;;;;;;;;4969111;28;93951;-71
2022/03/19 03:04:28;;;;;;;25.00;5.93;;;;;;;;;;4965314;28;93479;-71
2022/03/19 03:06:56;;;;;;;15.57;4.65;;;;;;;;;;4971183;28;93762;-71
2022/03/19 03:09:23;;;;;;;14.13;4.50;;;;;;;;;;4970580;28;94403;-71
2022/03/19 03:11:50;;;;;;;12.43;3.90;;;;;;;;;;4970406;28;92489;-71
2022/03/19 03:14:18;;;;;;;24.23;5.20;;;;;;;;;;4973969;28;92989;-71
2022/03/19 03:16:44;;;;;;;16.02;4.18;;;;;;;;;;4970471;28;95921;-71
2022/03/19 03:19:11;;;;;;;14.90;4.30;;;;;;;;;;4961528;28;92546;-71
2022/03/19 03:21:39;;;;;;;23.98;4.88;;;;;;;;;;4965200;28;93150;-71
2022/03/19 03:24:06;;;;;;;20.83;4.95;;;;;;;;;;4959710;28;93976;-71
2022/03/19 03:26:32;;;;;;;16.88;5.07;;;;;;;;;;4963483;28;93874;-71
2022/03/19 03:28:59;;;;;;;23.27;5.93;;;;;;;;;;4965246;28;93617;-70
2022/03/19 03:31:25;;;;;;;17.70;4.75;;;;;;;;;;4972631;28;92812;-70
2022/03/19 03:33:52;;;;;;;26.38;5.35;;;;;;;;;;4971785;28;93610;-71
2022/03/19 03:36:18;;;;;;;19.10;5.30;;;;;;;;;;4963748;28;93634;-71
2022/03/19 03:38:45;;;;;;;27.10;4.90;;;;;;;;;;4961146;28;93003;-71
2022/03/19 03:41:11;;;;;;;16.70;4.03;;;;;;;;;;4971653;28;96364;-71
2022/03/19 03:43:37;;;;;;;20.52;4.75;;;;;;;;;;4967623;28;92532;-71
2022/03/19 03:46:04;;;;;;;15.95;4.47;;;;;;;;;;4973161;28;92584;-71
2022/03/19 03:48:31;;;;;;;17.65;5.03;;;;;;;;;;4966948;28;93391;-71
2022/03/19 03:50:58;;;;;;;20.45;4.53;;;;;;;;;;4967680;28;92540;-71
2022/03/19 03:53:25;;;;;;;22.92;5.57;;;;;;;;;;4972802;28;92977;-71
2022/03/19 03:55:52;;;;;;;22.67;5.70;;;;;;;;;;4973036;28;93304;-71
2022/03/19 03:58:18;;;;;;;17.10;4.80;;;;;;;;;;4966934;28;91761;-71
2022/03/19 04:00:44;;;;;;;24.35;5.03;;;;;;;;;;4954922;28;93053;-71
2022/03/19 04:03:11;;;;;;;19.70;5.10;;;;;;;;;;4969804;28;93552;-71
2022/03/19 04:05:38;;;;;;;20.08;4.88;;;;;;;;;;4971508;28;94886;-71
2022/03/19 04:08:05;;;;;;;22.85;6.38;;;;;;;;;;4971265;28;95660;-70
2022/03/19 04:10:31;;;;;;;18.80;5.22;;;;;;;;;;4976282;28;93241;-71
2022/03/19 04:12:58;;;;;;;24.27;5.13;;;;;;;;;;4961660;28;95967;-71
2022/03/19 04:15:25;;;;;;;17.60;5.07;;;;;;;;;;4972879;28;93776;-71
2022/03/19 04:17:51;;;;;;;17.02;4.57;;;;;;;;;;4971598;28;92477;-71
2022/03/19 04:20:18;;;;;;;21.08;5.38;;;;;;;;;;4969467;28;92999;-71
2022/03/19 04:22:45;;;;;;;25.63;5.68;;;;;;;;;;4972607;28;92899;-71
2022/03/19 04:25:14;;;;;;;30.50;5.47;;;;;;;;;;4972833;28;92458;-71
2022/03/19 04:27:40;;;;;;;14.68;5.53;;;;;;;;;;4969119;28;93420;-71
2022/03/19 04:30:07;;;;;;;15.88;5.28;;;;;;;;;;4970388;28;96342;-71
2022/03/19 04:32:41;;;;;;;20.42;5.13;;;;;;;;;;4974764;28;92734;-71
2022/03/19 04:36:30;;;;;;;17.95;4.80;;;;;;;;;;4971099;28;96241;-71
2022/03/19 04:37:56;;;;;;;23.33;5.07;;;;;;;;;;4971036;28;92652;-71
2022/03/19 04:40:22;;;;;;;24.70;5.88;;;;;;;;;;4973418;28;94279;-71
2022/03/19 04:42:48;;;;;;;23.33;6.03;;;;;;;;;;4969719;28;94308;-71
2022/03/19 04:45:14;;;;;;;23.73;6.20;;;;;;;;;;4967946;28;92564;-70
2022/03/19 04:47:41;;;;;;;20.42;4.93;;;;;;;;;;4971230;28;93446;-70
2022/03/19 04:50:07;;;;;;;27.73;5.25;;;;;;;;;;4954019;28;93432;-70
2022/03/19 04:52:34;;;;;;;19.90;5.82;;;;;;;;;;4966333;28;92605;-70
2022/03/19 04:55:01;;;;;;;42.40;6.13;;;;;;;;;;4967182;28;95862;-70
2022/03/19 04:57:27;;;;;;;22.65;5.97;;;;;;;;;;4970817;28;94004;-71
2022/03/19 04:59:54;;;;;;;16.02;4.75;;;;;;;;;;4972972;28;93269;-71
2022/03/19 05:02:24;;;;;;;21.73;5.40;;;;;;;;;;4967874;28;94316;-71
2022/03/19 05:04:51;;;;;;;18.55;5.35;;;;;;;;;;4953184;28;92642;-71
2022/03/19 05:07:19;;;;;;;19.38;5.00;;;;;;;;;;4968606;28;93339;-71
2022/03/19 05:12:32;;;;;;;11.38;4.70;;;;;;;;;;4968087;28;91748;-71
2022/03/19 05:14:59;;;;;;;11.20;4.50;;;;;;;;;;4963593;28;92842;-71
2022/03/19 05:17:25;;;;;;;22.13;5.32;;;;;;;;;;4968704;28;92966;-71
2022/03/19 05:19:52;;;;;;;16.95;5.15;;;;;;;;;;4970124;28;96409;-70
2022/03/19 05:22:18;;;;;;;18.88;5.60;;;;;;;;;;4970176;28;93846;-71
2022/03/19 05:24:44;;;;;;;21.70;5.47;;;;;;;;;;4968435;28;92424;-70
2022/03/19 05:27:11;;;;;;;20.50;5.75;;;;;;;;;;4958413;28;93074;-70
2022/03/19 05:29:38;;;;;;;12.73;5.38;;;;;;;;;;4970248;28;95526;-71
2022/03/19 05:32:04;;;;;;;18.05;6.07;;;;;;;;;;4969073;28;92518;-70
2022/03/19 05:34:31;;;;;;;18.63;5.60;;;;;;;;;;4963400;28;93236;-71
2022/03/19 05:36:58;;;;;;;21.83;5.60;;;;;;;;;;4971809;28;91706;-70
2022/03/19 05:39:25;;;;;;;15.90;4.97;;;;;;;;;;4974279;28;92702;-71
2022/03/19 05:41:52;;;;;;;27.13;5.55;;;;;;;;;;4965287;28;93435;-70
2022/03/19 05:44:18;;;;;;;17.30;5.68;;;;;;;;;;4967260;28;94930;-71
2022/03/19 05:46:44;;;;;;;25.92;6.10;;;;;;;;;;4967817;28;96006;-71
2022/03/19 05:49:11;;;;;;;21.55;6.55;;;;;;;;;;4975120;28;93544;-70
2022/03/19 05:51:37;;;;;;;16.80;5.40;;;;;;;;;;4974714;28;92418;-70
2022/03/19 05:54:04;;;;;;;19.63;5.80;;;;;;;;;;4971752;28;93869;-70
2022/03/19 05:56:30;;;;;;;14.07;5.38;;;;;;;;;;4962636;28;93989;-70
2022/03/19 05:58:57;;;;;;;16.63;6.00;;;;;;;;;;4975552;28;92822;-70
2022/03/19 06:01:26;;;;;;;21.25;6.13;;;;;;;;;;4971791;28;93228;-70
2022/03/19 06:03:53;;;;;;;16.58;5.90;;;;;;;;;;4973737;28;92570;-71
2022/03/19 06:06:20;;;;;;;12.80;5.47;;;;;;;;;;4966790;28;94398;-70
2022/03/19 06:08:46;;;;;;;18.80;6.03;;;;;;;;;;4968429;28;96183;-70
2022/03/19 06:11:12;;;;;;;22.23;6.30;;;;;;;;;;4971361;28;92665;-70
2022/03/19 06:13:39;;;;;;;18.85;6.50;;;;;;;;;;4961748;28;93149;-70
2022/03/19 06:16:05;;;;;;;17.17;7.07;;;;;;;;;;4973667;28;93127;-70
2022/03/19 06:18:31;;;;;;;19.48;6.93;;;;;;;;;;4971178;28;92542;-70
2022/03/19 06:20:58;;;;;;;25.15;6.32;;;;;;;;;;4971815;28;93267;-70
2022/03/19 06:23:24;;;;;;;20.23;6.45;;;;;;;;;;4968993;28;92488;-70
2022/03/19 06:25:51;;;;;;;18.08;6.68;;;;;;;;;;4962248;28;93160;-71
2022/03/19 06:28:18;;;;;;;22.25;6.55;;;;;;;;;;4970710;28;93700;-70
2022/03/19 06:30:44;;;;;;;21.60;6.97;;;;;;;;;;4967906;28;92547;-71
2022/03/19 06:33:16;;;;;;;23.80;7.38;;;;;;;;;;4972399;28;94927;-70
2022/03/19 06:38:29;;;;;;;20.92;7.10;;;;;;;;;;4967455;28;92593;-70
2022/03/19 06:40:55;;;;;;;16.25;7.10;;;;;;;;;;4965966;28;93509;-71
2022/03/19 06:43:22;;;;;;;26.20;7.55;;;;;;;;;;4965217;28;92609;-71
2022/03/19 06:45:48;;;;;;;23.23;6.93;;;;;;;;;;4969036;28;93419;-71
2022/03/19 06:48:14;;;;;;;26.35;8.77;;;;;;;;;;4967735;28;93545;-70
2022/03/19 06:50:40;;;;;;;24.23;7.80;;;;;;;;;;4958134;28;92143;-70
2022/03/19 06:53:07;;;;;;;30.70;7.50;;;;;;;;;;4964219;28;92624;-70
2022/03/19 06:55:34;;;;;;;23.02;7.07;;;;;;;;;;4958151;28;93599;-71
2022/03/19 06:58:00;;;;;;;21.00;7.15;;;;;;;;;;4968315;28;95139;-71
2022/03/19 07:00:26;;;;;;;21.25;7.63;;;;;;;;;;4972552;28;95537;-71
2022/03/19 07:02:54;;;;;;;26.65;7.55;;;;;;;;;;4972619;28;93631;-71
2022/03/19 07:05:21;;;;;;;27.05;6.55;;;;;;;;;;4971343;28;93135;-71
2022/03/19 07:07:47;;;;;;;17.35;6.88;;;;;;;;;;4964033;28;93808;-71
2022/03/19 07:10:15;;;;;;;26.65;7.22;;;;;;;;;;4970736;28;92619;-71
2022/03/19 07:12:42;;;;;;;28.40;6.97;;;;;;;;;;4952230;28;93024;-71
2022/03/19 07:15:12;;;;;;;34.28;7.85;;;;;;;;;;4957341;28;92690;-71
2022/03/19 07:17:39;;;;;;;24.90;7.35;;;;;;;;;;4968919;28;92500;-71
2022/03/19 07:20:06;;;;;;;22.98;5.90;;;;;;;;;;4971558;28;93346;-70
2022/03/19 07:22:45;;;;;;;19.30;6.15;;;;;;;;;;4963852;28;95920;-71
2022/03/19 07:25:11;;;;;;;24.48;6.20;;;;;;;;;;4970921;28;92471;-71
2022/03/19 07:27:37;;;;;;;18.98;7.07;;;;;;;;;;4960889;28;94108;-70
2022/03/19 07:30:04;;;;;;;17.75;6.55;;;;;;;;;;4961549;28;92656;-70
2022/03/19 07:32:30;;;;;;;26.10;7.13;;;;;;;;;;4965999;28;93875;-71
2022/03/19 07:34:56;;;;;;;23.20;6.63;;;;;;;;;;4956002;28;95745;-71
2022/03/19 07:37:24;;;;;;;19.85;6.07;;;;;;;;;;4970404;28;92705;-70
2022/03/19 07:39:50;;;;;;;19.35;5.47;;;;;;;;;;4967578;28;93212;-71
2022/03/19 07:42:17;;;;;;;20.70;5.75;;;;;;;;;;4972790;28;93863;-71
2022/03/19 07:44:43;;;;;;;27.77;6.50;;;;;;;;;;4966790;28;92658;-71
2022/03/19 07:47:09;;;;;;;21.13;6.00;;;;;;;;;;4966643;28;95321;-71
2022/03/19 07:49:36;;;;;;;18.85;5.88;;;;;;;;;;4969485;28;93581;-71
2022/03/19 07:52:05;;;;;;;18.77;5.10;;;;;;;;;;4970387;28;93257;-71
2022/03/19 07:54:32;;;;;;;23.15;5.60;;;;;;;;;;4955211;28;93413;-70
2022/03/19 07:56:58;;;;;;;24.65;6.00;;;;;;;;;;4970123;28;92562;-69
2022/03/19 07:59:25;;;;;;;22.70;5.40;;;;;;;;;;4958851;28;95144;-70
2022/03/19 08:01:51;;;;;;;17.85;5.88;;;;;;;;;;4962051;28;94005;-69
2022/03/19 08:04:17;;;;;;;21.27;6.32;;;;;;;;;;4954343;28;91717;-69
2022/03/19 08:06:44;;;;;;;15.32;4.95;;;;;;;;;;4968173;28;93556;-69
2022/03/19 08:09:10;;;;;;;19.17;5.72;;;;;;;;;;4968486;28;93908;-69
2022/03/19 08:11:38;;;;;;;16.08;5.45;;;;;;;;;;4971282;28;94999;-69
2022/03/19 08:14:04;;;;;;;18.45;5.47;;;;;;;;;;4970576;28;93739;-69
2022/03/19 08:16:30;;;;;;;13.65;5.47;;;;;;;;;;4966541;28;93540;-69
2022/03/19 08:18:57;;;;;;;21.02;5.68;;;;;;;;;;4957423;28;92950;-69
2022/03/19 08:21:23;;;;;;;17.63;5.25;;;;;;;;;;4962731;28;93376;-69
2022/03/19 08:23:49;;;;;;;25.17;6.03;;;;;;;;;;4966677;28;92647;-69
2022/03/19 08:26:16;;;;;;;23.40;6.70;;;;;;;;;;4970823;28;94114;-80
2022/03/19 08:28:42;;;;;;;16.02;6.22;;;;;;;;;;4971862;28;92800;-80
2022/03/19 08:31:08;;;;;;;15.30;6.07;;;;;;;;;;4972556;28;94205;-80
2022/03/19 08:33:35;;;;;;;19.45;5.72;;;;;;;;;;4969229;28;93961;-80
2022/03/19 08:36:01;;;;;;;21.27;6.13;;;;;;;;;;4965558;28;96121;-80
2022/03/19 08:41:12;;;;;;;19.23;4.97;;;;;;;;;;4963853;28;93900;-81
2022/03/19 08:43:38;;;;;;;22.10;5.82;;;;;;;;;;4968611;28;92511;-81
2022/03/19 08:46:05;;;;;;;24.08;5.10;;;;;;;;;;4967759;28;93627;-82
2022/03/19 08:48:32;;;;;;;20.15;4.97;;;;;;;;;;4961955;28;93512;-82
2022/03/19 08:51:39;;;;;;;24.90;4.93;;;;;;;;;;4973472;28;92480;-79
2022/03/19 08:53:48;;;;;;;17.77;5.18;;;;;;;;;;4967013;28;92735;-82
2022/03/19 08:56:14;;;;;;;16.05;4.80;;;;;;;;;;4964307;28;92617;-82
2022/03/19 08:58:40;;;;;;;17.55;4.43;;;;;;;;;;4962306;28;96525;-75
2022/03/19 09:01:06;;;;;;;17.83;4.63;;;;;;;;;;4962567;28;95851;-81
2022/03/19 09:03:33;;;;;;;10.48;4.93;;;;;;;;;;4966604;28;92393;-82
2022/03/19 09:06:00;;;;;;;16.70;4.75;;;;;;;;;;4955826;28;93462;-81
2022/03/19 09:08:26;;;;;;;15.98;5.72;;;;;;;;;;4965891;28;93743;-81
2022/03/19 09:10:53;;;;;;;16.77;5.00;;;;;;;;;;4953302;28;92779;-82
2022/03/19 09:13:20;;;;;;;13.02;3.78;;;;;;;;;;4958805;28;93536;-81
2022/03/19 09:15:47;;;;;;;12.55;3.97;;;;;;;;;;4959540;28;94453;-80
2022/03/19 09:18:13;;;;;;;10.60;3.95;;;;;;;;;;4973475;28;93238;-81
2022/03/19 09:20:40;;;;;;;12.52;3.90;;;;;;;;;;4989908;28;93698;-81
2022/03/19 09:23:07;;;;;;;12.73;3.55;;;;;;;;;;4976960;28;93228;-78
2022/03/19 09:25:33;;;;;;;11.60;3.45;;;;;;;;;;4991949;28;95189;-81
2022/03/19 09:27:59;;;;;;;9.32;3.58;;;;;;;;;;4969667;28;93128;-82
2022/03/19 09:30:26;;;;;;;12.40;3.60;;;;;;;;;;4971797;28;92542;-82
2022/03/19 09:32:56;;;;;;;11.35;3.38;;;;;;;;;;4963274;28;92427;-82
2022/03/19 09:35:42;;;;;;;7.73;2.67;;;;;;;;;;4975946;28;94039;-83
2022/03/19 09:38:08;;;;;;;11.93;2.72;;;;;;;;;;4976141;28;93239;-83
2022/03/19 09:40:34;;;;;;;20.58;3.25;;;;;;;;;;4965050;28;93466;-84
2022/03/19 09:43:01;;;;;;;8.27;2.53;;;;;;;;;;4963034;28;91982;-83
2022/03/19 09:45:28;;;;;;;13.48;3.15;;;;;;;;;;4975262;28;92738;-84
2022/03/19 09:47:55;;;;;;;8.20;2.85;;;;;;;;;;4970736;28;94042;-83
2022/03/19 09:50:22;;;;;;;8.57;2.60;;;;;;;;;;4969208;28;95002;-83
2022/03/19 09:52:50;;;;;;;7.95;2.65;;;;;;;;;;4974300;28;95673;-83
2022/03/19 09:55:17;;;;;;;7.95;2.50;;;;;;;;;;4963218;28;93473;-84
2022/03/19 09:57:43;;;;;;;22.42;2.65;;;;;;;;;;4978100;28;93134;-84
2022/03/19 10:00:10;;;;;;;8.43;2.47;;;;;;;;;;4994080;28;93911;-86
2022/03/19 10:02:55;;;;;;;9.57;2.50;;;;;;;;;;4958310;28;92980;-85
2022/03/19 10:10:55;;;;;;;11.07;2.53;;;;;;;;;;4971364;28;93608;-83
2022/03/19 10:13:23;;;;;;;5.18;2.20;;;;;;;;;;4975092;28;93508;-85
2022/03/19 10:15:49;;;;;;;8.15;2.10;;;;;;;;;;4972651;28;96806;-82
2022/03/19 10:18:15;;;;;;;6.75;2.17;;;;;;;;;;4971065;28;93362;-83
2022/03/19 10:20:42;;;;;;;9.93;1.98;;;;;;;;;;4971714;28;94300;-84
2022/03/19 10:23:08;;;;;;;10.43;2.15;;;;;;;;;;4962740;28;94044;-84
2022/03/19 10:25:34;;;;;;;5.38;2.08;;;;;;;;;;4958181;28;94422;-85
2022/03/19 10:28:03;;;;;;;10.45;2.05;;;;;;;;;;4969700;28;95027;-85
2022/03/19 10:30:35;;;;;;;8.50;2.13;;;;;;;;;;4956985;28;93851;-82
2022/03/19 10:33:02;;;;;;;4.90;2.00;;;;;;;;;;4957875;28;94377;-83
2022/03/19 10:35:32;;;;;;;4.43;1.85;;;;;;;;;;4963191;28;94664;-83
2022/03/19 10:38:05;;;;;;;8.15;2.35;;;;;;;;;;4959559;28;94785;-80
2022/03/19 10:40:36;;;;;;;7.13;2.85;;;;;;;;;;4959869;28;96633;-82
2022/03/19 10:43:04;;;;;;;7.60;1.70;;;;;;;;;;4976368;28;94556;-83
2022/03/19 10:45:31;;;;;;;9.37;2.13;;;;;;;;;;4965859;28;94893;-82
2022/03/19 10:48:00;;;;;;;6.25;1.88;;;;;;;;;;4973344;28;95201;-81
2022/03/19 10:50:26;;;;;;;9.70;1.88;;;;;;;;;;4972431;28;93872;-83
2022/03/19 10:52:53;;;;;;;7.43;2.20;;;;;;;;;;4959533;28;94567;-83
2022/03/19 10:55:19;;;;;;;6.22;1.98;;;;;;;;;;4954073;28;94737;-82
2022/03/19 10:57:46;;;;;;;7.65;1.80;;;;;;;;;;4955891;28;93048;-83
2022/03/19 11:00:13;;;;;;;5.80;2.42;;;;;;;;;;4969456;28;95366;-80
2022/03/19 11:02:45;;;;;;;7.13;2.67;;;;;;;;;;4974733;28;94985;-81
2022/03/19 11:05:13;;;;;;;8.07;2.67;;;;;;;;;;4971255;28;96418;-81
2022/03/19 11:07:42;;;;;;;8.85;1.85;;;;;;;;;;4955076;28;94555;-81
2022/03/19 11:10:09;;;;;;;11.48;2.15;;;;;;;;;;4953379;28;93851;-81
2022/03/19 11:12:35;;;;;;;8.52;1.98;;;;;;;;;;4963766;28;94706;-82
2022/03/19 11:15:03;;;;;;;9.60;2.60;;;;;;;;;;4966940;28;95380;-81
2022/03/19 11:17:33;;;;;;;5.68;2.33;;;;;;;;;;4972577;28;94014;-82
2022/03/19 11:20:09;;;;;;;6.38;2.10;;;;;;;;;;4961507;28;95080;-84
2022/03/19 11:22:39;;;;;;;11.60;2.17;;;;;;;;;;4956717;28;94269;-83
2022/03/19 11:25:22;;;;;;;8.52;2.38;;;;;;;;;;4968542;28;93784;-84
2022/03/19 11:27:49;;;;;;;8.60;2.40;;;;;;;;;;4971711;28;94896;-80
2022/03/19 11:30:17;;;;;;;10.73;2.60;;;;;;;;;;4960039;28;96573;-80
2022/03/19 11:33:02;;;;;;;5.45;2.10;;;;;;;;;;4958339;28;96875;-79
2022/03/19 11:35:28;;;;;;;6.05;1.55;;;;;;;;;;4969004;28;95078;-81
2022/03/19 11:38:01;;;;;;;9.40;2.15;;;;;;;;;;4955415;28;93686;-80
2022/03/19 11:40:29;;;;;;;9.00;1.98;;;;;;;;;;4971877;28;94434;-80
2022/03/19 11:43:17;;;;;;;5.32;1.48;;;;;;;;;;4952922;28;95277;-79
2022/03/19 11:46:00;;;;;;;7.82;2.00;;;;;;;;;;4968275;28;93782;-80
2022/03/19 11:48:47;;;;;;;6.65;2.10;;;;;;;;;;4974427;28;93991;-80
2022/03/19 11:51:19;;;;;;;8.27;1.88;;;;;;;;;;4971354;28;93245;-80
2022/03/19 11:54:17;;;;;;;8.32;1.88;;;;;;;;;;4972160;28;95063;-80
2022/03/19 11:56:43;;;;;;;10.05;2.28;;;;;;;;;;4960552;28;96056;-80
2022/03/19 11:59:13;;;;;;;8.30;2.28;;;;;;;;;;4963008;28;93253;-80
2022/03/19 12:01:49;;;;;;;8.45;1.80;;;;;;;;;;4972128;28;93922;-79
2022/03/19 12:04:17;;;;;;;7.80;2.63;;;;;;;;;;4969545;28;96120;-79
2022/03/19 12:06:49;;;;;;;8.70;2.35;;;;;;;;;;4965623;28;93952;-79
2022/03/19 12:09:15;;;;;;;7.57;2.30;;;;;;;;;;4972191;28;94047;-78
2022/03/19 12:12:02;;;;;;;8.85;2.10;;;;;;;;;;4973425;28;94320;-81
2022/03/19 12:14:28;;;;;;;5.13;1.90;;;;;;;;;;4972734;28;93717;-82
2022/03/19 12:17:13;;;;;;;9.55;2.50;;;;;;;;;;4957523;28;94139;-82
2022/03/19 12:19:54;;;;;;;7.88;1.90;;;;;;;;;;4969467;28;93442;-79
2022/03/19 12:22:28;;;;;;;7.57;1.88;;;;;;;;;;4953718;28;95967;-82
2022/03/19 12:25:03;;;;;;;5.43;1.70;;;;;;;;;;4967604;28;94268;-81
2022/03/19 12:27:29;;;;;;;3.67;1.45;;;;;;;;;;4971972;28;92936;-80
2022/03/19 12:29:57;;;;;;;5.55;1.60;;;;;;;;;;4965151;28;93690;-81
2022/03/19 12:32:23;;;;;;;5.78;1.30;;;;;;;;;;4952201;28;93836;-82
2022/03/19 12:34:59;;;;;;;7.53;1.35;;;;;;;;;;4955754;28;93201;-81
2022/03/19 12:37:26;;;;;;;8.13;1.73;;;;;;;;;;4953173;28;94039;-84
2022/03/19 12:39:59;;;;;;;9.43;1.90;;;;;;;;;;4971031;28;93711;-81
2022/03/19 12:42:29;;;;;;;7.65;1.85;;;;;;;;;;4961668;28;92582;-82
2022/03/19 12:44:59;;;;;;;8.88;2.55;;;;;;;;;;4963676;28;93755;-79
2022/03/19 12:47:25;;;;;;;7.70;2.00;;;;;;;;;;4969683;28;95087;-78
2022/03/19 12:49:52;;;;;;;5.93;1.83;;;;;;;;;;4957377;28;96299;-81
2022/03/19 12:52:19;;;;;;;8.93;1.83;;;;;;;;;;4973732;28;93688;-81
2022/03/19 12:54:55;;;;;;;6.35;1.95;;;;;;;;;;4960527;28;92563;-81
2022/03/19 12:57:24;;;;;;;6.75;1.30;;;;;;;;;;4962317;28;93206;-81
2022/03/19 12:59:55;;;;;;;6.25;2.08;;;;;;;;;;4955626;28;92698;-82
2022/03/19 13:02:23;;;;;;;6.97;2.00;;;;;;;;;;4970336;28;93289;-81
2022/03/19 13:04:49;;;;;;;6.18;1.42;;;;;;;;;;4976546;28;92773;-82
2022/03/19 13:07:19;;;;;;;15.45;1.80;;;;;;;;;;4963218;28;92547;-80
2022/03/19 13:09:45;;;;;;;;;;;;;;;;;;4958540;28;93493;-81
2022/03/19 13:12:18;;;;;;;6.35;2.15;;;;;;;;;;4956173;28;124523;-81
2022/03/19 13:14:49;;;;;;;13.70;2.40;;;;;;;;;;4965665;28;92507;-80
2022/03/19 13:17:15;;;;;;;8.40;1.70;;;;;;;;;;4952360;28;93061;-79
2022/03/19 13:19:41;;;;;;;5.22;1.50;;;;;;;;;;4969552;28;93049;-80
2022/03/19 13:22:10;;;;;;;8.90;2.15;;;;;;;;;;4976576;28;93313;-80
2022/03/19 13:24:37;;;;;;;16.37;2.67;;;;;;;;;;4969505;28;93595;-80
2022/03/19 13:27:04;;;;;;;7.03;1.60;;;;;;;;;;4960795;28;92488;-80
2022/03/19 13:29:32;;;;;;;11.50;1.58;;;;;;;;;;4972517;28;93135;-80
2022/03/19 13:32:00;;;;;;;13.95;1.63;;;;;;;;;;4973673;28;94697;-78
2022/03/19 13:34:31;;;;;;;3.97;1.35;;;;;;;;;;4975959;28;92478;-80
2022/03/19 13:37:01;;;;;;;7.32;1.67;;;;;;;;;;4968871;28;94801;-79
2022/03/19 13:39:30;;;;;;;16.30;2.13;;;;;;;;;;4972121;28;93618;-79
2022/03/19 13:42:02;;;;;;;6.57;1.52;;;;;;;;;;4959739;28;93328;-78
2022/03/19 13:44:40;;;;;;;8.38;1.80;;;;;;;;;;4959594;28;93750;-77
2022/03/19 13:47:11;;;;;;;8.32;2.15;;;;;;;;;;4969405;28;92627;-75
2022/03/19 13:49:42;;;;;;;16.05;2.05;;;;;;;;;;4970509;28;93435;-76
2022/03/19 13:52:28;;;;;;;5.93;1.88;;;;;;;;;;4969600;28;92896;-76
2022/03/19 13:54:57;;;;;;;9.40;1.58;;;;;;;;;;4969912;28;92225;-75
2022/03/19 13:57:29;;;;;;;9.43;1.85;;;;;;;;;;4982029;28;92952;-76
2022/03/19 14:00:17;;;;;;;6.55;1.65;;;;;;;;;;4961479;28;94070;-75
2022/03/19 14:02:57;;;;;;;5.55;1.67;;;;;;;;;;4963179;28;94988;-75
2022/03/19 14:05:25;;;;;;;5.80;2.08;;;;;;;;;;4974812;28;93765;-75
2022/03/19 14:07:56;;;;;;;3.33;1.25;;;;;;;;;;4970212;28;92584;-72
2022/03/19 14:10:27;;;;;;;8.88;1.75;;;;;;;;;;4973279;28;93052;-74
2022/03/19 14:13:07;;;;;;;8.13;1.50;;;;;;;;;;4965718;28;92767;-78
2022/03/19 14:15:39;;;;;;;2.63;1.13;;;;;;;;;;4971775;28;92585;-77
2022/03/19 14:18:06;;;;;;;5.18;1.38;;;;;;;;;;4970818;28;93487;-79
2022/03/19 14:20:33;;;;;;;5.35;1.42;;;;;;;;;;4971969;28;94352;-79
2022/03/19 14:22:59;;;;;;;6.30;1.20;;;;;;;;;;4967565;28;93000;-78
2022/03/19 14:25:26;;;;;;;8.43;1.35;;;;;;;;;;4978565;28;95392;-79
2022/03/19 14:28:03;;;;;;;5.15;1.35;;;;;;;;;;4968278;28;94906;-78
2022/03/19 14:30:30;;;;;;;6.40;1.30;;;;;;;;;;4971534;28;95628;-78
2022/03/19 14:32:59;;;;;;;3.53;1.02;;;;;;;;;;4965002;28;93435;-78
2022/03/19 14:35:36;;;;;;;2.90;1.30;;;;;;;;;;4972632;28;92484;-78
2022/03/19 14:38:03;;;;;;;4.97;1.58;;;;;;;;;;4974153;28;94141;-78
2022/03/19 14:40:29;;;;;;;2.17;1.10;;;;;;;;;;4974663;28;93626;-78
2022/03/19 14:42:55;;;;;;;6.47;1.10;;;;;;;;;;4975070;28;92453;-78
2022/03/19 14:45:24;;;;;;;6.05;3.30;;;;;;;;;;4976118;28;93777;-76
2022/03/19 14:47:50;;;;;;;4.72;2.90;;;;;;;;;;4967192;28;93478;-78
2022/03/19 14:50:17;;;;;;;7.68;1.63;;;;;;;;;;4955381;28;93147;-78
2022/03/19 14:52:43;;;;;;;3.88;1.08;;;;;;;;;;4952452;28;98048;-78
2022/03/19 14:55:09;;;;;;;3.50;1.05;;;;;;;;;;4954447;28;92437;-78